createdAt,value
2023-02-26T00:00:35.103Z,4.84
2023-02-26T00:06:02.807Z,4.86
2023-02-26T00:11:08.869Z,4.87
2023-02-26T00:16:33.164Z,4.84
2023-02-26T00:21:37.493Z,4.83
2023-02-26T00:26:41.643Z,4.82
2023-02-26T00:31:46.932Z,4.77
2023-02-26T00:36:55.179Z,4.66
2023-02-26T00:42:38.025Z,4.58
2023-02-26T00:48:15.845Z,4.62
2023-02-26T00:53:40.896Z,4.52
2023-02-26T00:58:44.859Z,4.49
2023-02-26T01:03:49.101Z,4.51
2023-02-26T01:09:03.326Z,4.50
2023-02-26T01:14:07.980Z,4.51
2023-02-26T01:19:26.713Z,4.42
2023-02-26T01:24:32.085Z,4.41
2023-02-26T01:29:36.128Z,4.43
2023-02-26T01:34:52.989Z,4.37
2023-02-26T01:40:05.834Z,4.34
2023-02-26T01:45:18.059Z,4.35
2023-02-26T01:50:26.114Z,4.35
2023-02-26T01:55:30.990Z,4.34
2023-02-26T02:00:35.131Z,4.32
2023-02-26T02:05:51.508Z,4.34
2023-02-26T02:11:10.491Z,4.40
2023-02-26T02:16:48.310Z,4.43
2023-02-26T02:22:07.600Z,4.47
2023-02-26T02:27:30.981Z,4.45
2023-02-26T02:32:45.088Z,4.32
2023-02-26T02:38:14.766Z,4.27
2023-02-26T02:43:25.083Z,4.38
2023-02-26T02:48:34.299Z,4.40
2023-02-26T02:53:50.799Z,4.39
2023-02-26T02:58:59.367Z,4.36
2023-02-26T03:04:11.828Z,4.35
2023-02-26T03:09:17.797Z,4.31
2023-02-26T03:14:22.055Z,4.33
2023-02-26T03:19:42.013Z,4.32
2023-02-26T03:24:56.445Z,4.32
2023-02-26T03:30:03.117Z,4.33
2023-02-26T03:35:18.933Z,4.27
2023-02-26T03:40:42.585Z,4.25
2023-02-26T03:46:26.330Z,4.24
2023-02-26T03:51:40.934Z,4.15
2023-02-26T03:57:06.194Z,4.17
2023-02-26T04:02:44.900Z,4.15
2023-02-26T04:07:52.609Z,4.12
2023-02-26T04:13:01.114Z,4.09
2023-02-26T04:18:15.484Z,4.10
2023-02-26T04:23:19.959Z,4.09
2023-02-26T04:28:23.533Z,4.11
2023-02-26T04:33:27.687Z,4.07
2023-02-26T04:38:33.676Z,4.02
2023-02-26T04:43:38.091Z,4.08
2023-02-26T04:49:08.887Z,3.97
2023-02-26T04:54:13.320Z,3.96
2023-02-26T04:59:19.669Z,3.87
2023-02-26T05:04:23.315Z,3.86
2023-02-26T05:09:28.421Z,3.83
2023-02-26T05:14:32.767Z,3.83
2023-02-26T05:19:36.649Z,3.78
2023-02-26T05:24:41.966Z,3.75
2023-02-26T05:29:47.155Z,3.57
2023-02-26T05:35:00.041Z,3.61
2023-02-26T05:40:07.399Z,3.55
2023-02-26T05:45:11.892Z,3.60
2023-02-26T05:50:16.075Z,3.59
2023-02-26T05:55:20.211Z,3.60
2023-02-26T06:00:24.110Z,3.56
2023-02-26T06:05:28.161Z,3.52
2023-02-26T06:10:35.050Z,3.67
2023-02-26T06:15:43.634Z,3.66
2023-02-26T06:20:47.415Z,3.59
2023-02-26T06:25:52.989Z,3.48
2023-02-26T06:30:56.639Z,3.42
2023-02-26T06:36:00.869Z,3.41
2023-02-26T06:41:09.106Z,3.38
2023-02-26T06:46:14.650Z,3.27
2023-02-26T06:51:18.304Z,3.24
2023-02-26T06:56:24.243Z,3.33
2023-02-26T07:01:36.879Z,3.35
2023-02-26T07:06:41.772Z,3.37
2023-02-26T07:11:45.575Z,3.42
2023-02-26T07:16:50.605Z,3.51
2023-02-26T07:21:55.262Z,3.62
2023-02-26T07:26:58.814Z,3.70
2023-02-26T07:32:02.971Z,3.85
2023-02-26T07:37:06.774Z,4.00
2023-02-26T07:42:10.273Z,4.09
2023-02-26T07:47:15.437Z,3.93
2023-02-26T07:52:20.159Z,3.76
2023-02-26T07:57:23.633Z,3.55
2023-02-26T08:02:27.543Z,3.48
2023-02-26T08:07:30.904Z,3.49
2023-02-26T08:12:34.652Z,3.55
2023-02-26T08:17:38.001Z,3.60
2023-02-26T08:22:42.272Z,3.73
2023-02-26T08:27:45.884Z,3.82
2023-02-26T08:32:50.163Z,3.68
2023-02-26T08:37:53.429Z,3.64
2023-02-26T08:42:59.021Z,3.71
2023-02-26T08:48:04.632Z,3.75
2023-02-26T08:53:08.379Z,3.81
2023-02-26T08:58:21.645Z,3.84
2023-02-26T09:03:25.149Z,3.85
2023-02-26T09:08:34.134Z,3.87
2023-02-26T09:13:42.700Z,3.92
2023-02-26T09:18:48.634Z,3.94
2023-02-26T09:23:54.112Z,3.98
2023-02-26T09:28:58.362Z,3.98
2023-02-26T09:34:01.732Z,4.06
2023-02-26T09:39:06.575Z,4.06
2023-02-26T09:44:23.875Z,4.21
2023-02-26T09:49:36.553Z,4.29
2023-02-26T09:54:47.201Z,4.48
2023-02-26T09:59:52.381Z,4.68
2023-02-26T10:05:26.618Z,4.63
2023-02-26T10:11:02.377Z,4.65
2023-02-26T10:16:12.700Z,4.76
2023-02-26T10:21:23.941Z,4.91
2023-02-26T10:26:33.550Z,5.03
2023-02-26T10:31:51.893Z,5.18
2023-02-26T10:37:09.308Z,5.21
2023-02-26T10:42:21.566Z,5.11
2023-02-26T10:47:51.955Z,5.11
2023-02-26T10:52:56.128Z,5.54
2023-02-26T10:58:26.425Z,5.95
2023-02-26T11:03:40.922Z,6.14
2023-02-26T11:08:46.523Z,6.05
2023-02-26T11:13:49.902Z,5.80
2023-02-26T11:19:00.624Z,5.65
2023-02-26T11:24:17.671Z,5.60
2023-02-26T11:29:23.508Z,5.46
2023-02-26T11:34:27.360Z,5.24
2023-02-26T11:39:36.607Z,5.05
2023-02-26T11:44:44.820Z,4.94
2023-02-26T11:49:56.736Z,4.86
2023-02-26T11:55:06.213Z,4.75
2023-02-26T12:00:24.089Z,4.73
2023-02-26T12:05:27.843Z,4.78
2023-02-26T12:11:08.997Z,4.82
2023-02-26T12:16:36.081Z,4.79
2023-02-26T12:22:03.036Z,4.85
2023-02-26T12:27:13.120Z,4.90
2023-02-26T12:32:38.955Z,4.99
2023-02-26T12:37:54.216Z,5.08
2023-02-26T12:43:11.789Z,5.18
2023-02-26T12:48:51.456Z,5.13
2023-02-26T12:53:58.099Z,5.01
2023-02-26T12:59:04.663Z,5.05
2023-02-26T13:04:24.351Z,5.11
2023-02-26T13:10:36.271Z,5.04
2023-02-26T13:16:46.156Z,4.96
2023-02-26T13:23:13.217Z,4.82
2023-02-26T13:29:23.394Z,4.74
2023-02-26T13:35:27.071Z,4.83
2023-02-26T13:41:52.482Z,4.79
2023-02-26T13:48:12.223Z,4.87
2023-02-26T13:54:10.257Z,4.86
2023-02-26T14:00:33.341Z,4.91
2023-02-26T14:07:17.595Z,4.87
2023-02-26T14:13:41.597Z,4.81
2023-02-26T14:19:36.819Z,4.81
2023-02-26T14:25:49.787Z,4.72
2023-02-26T14:31:36.457Z,4.67
2023-02-26T14:44:55.660Z,4.62
2023-02-26T14:51:06.541Z,4.58
2023-02-26T15:05:10.330Z,4.55
2023-02-26T15:10:50.368Z,4.63
2023-02-26T15:17:48.525Z,4.60
2023-02-26T15:24:34.850Z,4.49
2023-02-26T15:38:02.993Z,4.20
2023-02-26T15:44:57.430Z,4.12
2023-02-26T15:50:55.013Z,4.09
2023-02-26T15:57:12.282Z,4.05
2023-02-26T16:02:39.533Z,4.09
2023-02-26T16:08:48.806Z,4.07
2023-02-26T16:15:19.511Z,3.93
2023-02-26T16:21:44.332Z,3.86
2023-02-26T16:27:44.730Z,3.88
2023-02-26T16:34:21.390Z,3.87
2023-02-26T16:41:14.019Z,3.87
2023-02-26T16:46:42.625Z,3.82
2023-02-26T16:52:57.194Z,3.76
2023-02-26T16:59:09.024Z,3.74
2023-02-26T17:05:25.741Z,3.72
2023-02-26T17:11:51.676Z,3.70
2023-02-26T17:25:06.915Z,3.71
2023-02-26T17:30:44.039Z,3.70
2023-02-26T17:51:23.237Z,3.64
2023-02-26T17:56:52.941Z,3.84
2023-02-26T18:17:15.997Z,3.64
2023-02-26T18:23:20.403Z,3.67
2023-02-26T18:44:58.289Z,3.61
2023-02-26T18:57:27.358Z,3.58
2023-02-26T19:03:56.612Z,3.59
2023-02-26T19:10:12.951Z,3.59
2023-02-26T19:16:35.120Z,3.59
2023-02-26T19:35:36.775Z,3.56
2023-02-26T19:42:15.516Z,3.58
2023-02-26T19:47:57.042Z,3.56
2023-02-26T19:53:37.473Z,3.59
2023-02-26T20:02:51.236Z,3.76
2023-02-26T20:09:16.252Z,3.74
2023-02-26T20:15:23.708Z,3.77
2023-02-26T20:21:11.562Z,3.69
2023-02-26T20:26:20.893Z,3.63
2023-02-26T20:32:00.783Z,3.61
2023-02-26T20:38:25.298Z,3.59
2023-02-26T20:44:39.502Z,3.58
2023-02-26T20:50:38.891Z,3.61
2023-02-26T20:57:09.079Z,3.60
2023-02-26T21:02:52.865Z,3.59
2023-02-26T21:08:28.713Z,3.49
2023-02-26T21:14:07.862Z,3.50
2023-02-26T21:20:19.268Z,3.48
2023-02-26T21:26:26.101Z,3.47
2023-02-26T21:32:50.300Z,3.42
2023-02-26T21:38:52.141Z,3.43
2023-02-26T21:45:31.863Z,3.44
2023-02-26T21:52:02.584Z,3.46
2023-02-26T21:58:09.907Z,3.45
2023-02-26T22:04:19.960Z,3.46
2023-02-26T22:17:39.118Z,3.44
2023-02-26T22:31:55.428Z,3.43
2023-02-26T22:38:29.036Z,3.43
2023-02-26T22:44:34.436Z,3.38
2023-02-26T22:50:14.889Z,3.36
2023-02-26T23:03:15.414Z,3.39
2023-02-26T23:09:47.190Z,3.41
2023-02-26T23:16:09.065Z,3.37
2023-02-26T23:28:17.185Z,3.36
2023-02-26T23:33:53.619Z,3.35
2023-02-26T23:39:57.300Z,3.38
2023-02-26T23:46:05.353Z,3.41
2023-02-26T23:52:29.995Z,3.44
2023-02-26T23:58:26.854Z,3.46
